sensor_id;sensor_type;location;lat;lon;timestamp;temperature;humidity
13186;DHT22;6658;53.080;7.428;2024-02-21T00:00:18;10.00;99.90
13186;DHT22;6658;53.080;7.428;2024-02-21T00:02:45;9.90;99.90
13186;DHT22;6658;53.080;7.428;2024-02-21T00:05:10;9.90;99.90
13186;DHT22;6658;53.080;7.428;2024-02-21T00:07:36;9.90;99.90
13186;DHT22;6658;53.080;7.428;2024-02-21T00:10:02;9.90;99.90
13186;DHT22;6658;53.080;7.428;2024-02-21T00:12:28;9.90;99.90
13186;DHT22;6658;53.080;7.428;2024-02-21T00:14:54;9.90;99.90
13186;DHT22;6658;53.080;7.428;2024-02-21T00:17:20;9.90;99.90
13186;DHT22;6658;53.080;7.428;2024-02-21T00:19:45;9.90;99.90
13186;DHT22;6658;53.080;7.428;2024-02-21T00:22:11;9.90;99.90
13186;DHT22;6658;53.080;7.428;2024-02-21T00:24:37;9.90;99.90
13186;DHT22;6658;53.080;7.428;2024-02-21T00:27:03;10.00;99.90
13186;DHT22;6658;53.080;7.428;2024-02-21T00:29:29;10.00;99.90
13186;DHT22;6658;53.080;7.428;2024-02-21T00:31:54;10.00;99.90
13186;DHT22;6658;53.080;7.428;2024-02-21T00:34:20;9.90;99.90
13186;DHT22;6658;53.080;7.428;2024-02-21T00:36:46;10.00;99.90
13186;DHT22;6658;53.080;7.428;2024-02-21T00:39:11;9.90;99.90
13186;DHT22;6658;53.080;7.428;2024-02-21T00:41:37;9.90;99.90
13186;DHT22;6658;53.080;7.428;2024-02-21T00:44:03;10.00;99.90
13186;DHT22;6658;53.080;7.428;2024-02-21T00:46:31;9.90;99.90
13186;DHT22;6658;53.080;7.428;2024-02-21T00:48:56;9.90;99.90
13186;DHT22;6658;53.080;7.428;2024-02-21T00:51:22;9.90;99.90
13186;DHT22;6658;53.080;7.428;2024-02-21T00:53:47;9.90;99.90
13186;DHT22;6658;53.080;7.428;2024-02-21T00:56:13;9.90;99.90
13186;DHT22;6658;53.080;7.428;2024-02-21T00:58:39;9.90;99.90
13186;DHT22;6658;53.080;7.428;2024-02-21T01:01:04;9.90;99.90
13186;DHT22;6658;53.080;7.428;2024-02-21T01:03:30;9.90;99.90
13186;DHT22;6658;53.080;7.428;2024-02-21T01:05:56;9.90;99.90
13186;DHT22;6658;53.080;7.428;2024-02-21T01:08:21;9.80;99.90
13186;DHT22;6658;53.080;7.428;2024-02-21T01:10:47;9.80;99.90
13186;DHT22;6658;53.080;7.428;2024-02-21T01:13:13;9.80;99.90
13186;DHT22;6658;53.080;7.428;2024-02-21T01:15:38;9.80;99.90
13186;DHT22;6658;53.080;7.428;2024-02-21T01:18:04;9.70;99.90
13186;DHT22;6658;53.080;7.428;2024-02-21T01:20:30;9.70;99.90
13186;DHT22;6658;53.080;7.428;2024-02-21T01:22:56;9.70;99.90
13186;DHT22;6658;53.080;7.428;2024-02-21T01:25:21;9.70;99.90
13186;DHT22;6658;53.080;7.428;2024-02-21T01:27:47;9.70;99.90
13186;DHT22;6658;53.080;7.428;2024-02-21T01:30:13;9.70;99.90
13186;DHT22;6658;53.080;7.428;2024-02-21T01:32:38;9.80;99.90
13186;DHT22;6658;53.080;7.428;2024-02-21T01:35:04;9.70;99.90
13186;DHT22;6658;53.080;7.428;2024-02-21T01:37:30;9.70;99.90
13186;DHT22;6658;53.080;7.428;2024-02-21T01:39:56;9.70;99.90
13186;DHT22;6658;53.080;7.428;2024-02-21T01:42:22;9.70;99.90
13186;DHT22;6658;53.080;7.428;2024-02-21T01:44:47;9.70;99.90
13186;DHT22;6658;53.080;7.428;2024-02-21T01:47:13;9.70;99.90
13186;DHT22;6658;53.080;7.428;2024-02-21T01:49:43;9.80;99.90
13186;DHT22;6658;53.080;7.428;2024-02-21T01:52:09;9.80;99.90
13186;DHT22;6658;53.080;7.428;2024-02-21T01:54:35;9.80;99.90
13186;DHT22;6658;53.080;7.428;2024-02-21T01:57:01;9.80;99.90
13186;DHT22;6658;53.080;7.428;2024-02-21T01:59:27;9.80;99.90
13186;DHT22;6658;53.080;7.428;2024-02-21T02:04:30;9.80;99.90
13186;DHT22;6658;53.080;7.428;2024-02-21T02:07:00;9.80;99.90
13186;DHT22;6658;53.080;7.428;2024-02-21T02:09:28;9.90;99.90
13186;DHT22;6658;53.080;7.428;2024-02-21T02:11:54;9.80;99.90
13186;DHT22;6658;53.080;7.428;2024-02-21T02:14:20;9.90;99.90
13186;DHT22;6658;53.080;7.428;2024-02-21T02:16:48;9.90;99.90
13186;DHT22;6658;53.080;7.428;2024-02-21T02:19:14;9.90;99.90
13186;DHT22;6658;53.080;7.428;2024-02-21T02:21:46;9.90;99.90
13186;DHT22;6658;53.080;7.428;2024-02-21T02:24:15;9.90;99.90
13186;DHT22;6658;53.080;7.428;2024-02-21T02:26:41;9.90;99.90
13186;DHT22;6658;53.080;7.428;2024-02-21T02:29:09;9.90;99.90
13186;DHT22;6658;53.080;7.428;2024-02-21T02:31:49;9.90;99.90
13186;DHT22;6658;53.080;7.428;2024-02-21T02:34:27;9.90;99.90
13186;DHT22;6658;53.080;7.428;2024-02-21T02:37:06;9.80;99.90
13186;DHT22;6658;53.080;7.428;2024-02-21T02:39:32;9.70;99.90
13186;DHT22;6658;53.080;7.428;2024-02-21T02:41:58;9.70;99.90
13186;DHT22;6658;53.080;7.428;2024-02-21T02:44:23;9.60;99.90
13186;DHT22;6658;53.080;7.428;2024-02-21T02:46:49;9.60;99.90
13186;DHT22;6658;53.080;7.428;2024-02-21T02:49:18;9.60;99.90
13186;DHT22;6658;53.080;7.428;2024-02-21T02:51:44;9.50;99.90
13186;DHT22;6658;53.080;7.428;2024-02-21T02:54:10;9.50;99.90
13186;DHT22;6658;53.080;7.428;2024-02-21T02:56:39;9.50;99.90
13186;DHT22;6658;53.080;7.428;2024-02-21T02:59:05;9.40;99.90
13186;DHT22;6658;53.080;7.428;2024-02-21T03:01:34;9.40;99.90
13186;DHT22;6658;53.080;7.428;2024-02-21T03:03:59;9.40;99.90
13186;DHT22;6658;53.080;7.428;2024-02-21T03:06:25;9.40;99.90
13186;DHT22;6658;53.080;7.428;2024-02-21T03:08:51;9.40;99.90
13186;DHT22;6658;53.080;7.428;2024-02-21T03:11:20;9.40;99.90
13186;DHT22;6658;53.080;7.428;2024-02-21T03:13:55;9.40;99.90
13186;DHT22;6658;53.080;7.428;2024-02-21T03:16:22;9.40;99.90
13186;DHT22;6658;53.080;7.428;2024-02-21T03:18:48;9.30;99.90
13186;DHT22;6658;53.080;7.428;2024-02-21T03:21:14;9.40;99.90
13186;DHT22;6658;53.080;7.428;2024-02-21T03:23:39;9.30;99.90
13186;DHT22;6658;53.080;7.428;2024-02-21T03:26:05;9.30;99.90
13186;DHT22;6658;53.080;7.428;2024-02-21T03:28:31;9.40;99.90
13186;DHT22;6658;53.080;7.428;2024-02-21T03:30:57;9.30;99.90
13186;DHT22;6658;53.080;7.428;2024-02-21T03:33:25;9.30;99.90
13186;DHT22;6658;53.080;7.428;2024-02-21T03:35:51;9.30;99.90
13186;DHT22;6658;53.080;7.428;2024-02-21T03:38:17;9.40;99.90
13186;DHT22;6658;53.080;7.428;2024-02-21T03:40:42;9.30;99.90
13186;DHT22;6658;53.080;7.428;2024-02-21T03:43:08;9.40;99.90
13186;DHT22;6658;53.080;7.428;2024-02-21T03:45:34;9.30;99.90
13186;DHT22;6658;53.080;7.428;2024-02-21T03:48:00;9.40;99.90
13186;DHT22;6658;53.080;7.428;2024-02-21T03:50:28;9.40;99.90
13186;DHT22;6658;53.080;7.428;2024-02-21T03:52:56;9.40;99.90
13186;DHT22;6658;53.080;7.428;2024-02-21T03:55:22;9.40;99.90
13186;DHT22;6658;53.080;7.428;2024-02-21T03:57:48;9.40;99.90
13186;DHT22;6658;53.080;7.428;2024-02-21T04:00:19;9.40;99.90
13186;DHT22;6658;53.080;7.428;2024-02-21T04:02:44;9.40;99.90
13186;DHT22;6658;53.080;7.428;2024-02-21T04:05:14;9.40;99.90
13186;DHT22;6658;53.080;7.428;2024-02-21T04:07:43;9.40;99.90
13186;DHT22;6658;53.080;7.428;2024-02-21T04:10:11;9.40;99.90
13186;DHT22;6658;53.080;7.428;2024-02-21T04:12:42;9.40;99.90
13186;DHT22;6658;53.080;7.428;2024-02-21T04:15:08;9.40;99.90
13186;DHT22;6658;53.080;7.428;2024-02-21T04:17:42;9.40;99.90
13186;DHT22;6658;53.080;7.428;2024-02-21T04:20:14;9.40;99.90
13186;DHT22;6658;53.080;7.428;2024-02-21T04:22:42;9.40;99.90
13186;DHT22;6658;53.080;7.428;2024-02-21T04:25:08;9.40;99.90
13186;DHT22;6658;53.080;7.428;2024-02-21T04:27:34;9.40;99.90
13186;DHT22;6658;53.080;7.428;2024-02-21T04:30:00;9.40;99.90
13186;DHT22;6658;53.080;7.428;2024-02-21T04:32:28;9.40;99.90
13186;DHT22;6658;53.080;7.428;2024-02-21T04:34:54;9.40;99.90
13186;DHT22;6658;53.080;7.428;2024-02-21T04:37:20;9.40;99.90
13186;DHT22;6658;53.080;7.428;2024-02-21T04:39:46;9.40;99.90
13186;DHT22;6658;53.080;7.428;2024-02-21T04:42:17;9.30;99.90
13186;DHT22;6658;53.080;7.428;2024-02-21T04:45:25;9.40;99.90
13186;DHT22;6658;53.080;7.428;2024-02-21T04:47:54;9.40;99.90
13186;DHT22;6658;53.080;7.428;2024-02-21T04:50:20;9.40;99.90
13186;DHT22;6658;53.080;7.428;2024-02-21T04:52:46;9.40;99.90
13186;DHT22;6658;53.080;7.428;2024-02-21T04:55:20;9.40;99.90
13186;DHT22;6658;53.080;7.428;2024-02-21T04:57:56;9.40;99.90
13186;DHT22;6658;53.080;7.428;2024-02-21T05:00:30;9.40;99.90
13186;DHT22;6658;53.080;7.428;2024-02-21T05:02:56;9.40;99.90
13186;DHT22;6658;53.080;7.428;2024-02-21T05:05:24;9.40;99.90
13186;DHT22;6658;53.080;7.428;2024-02-21T05:07:50;9.40;99.90
13186;DHT22;6658;53.080;7.428;2024-02-21T05:10:31;9.40;99.90
13186;DHT22;6658;53.080;7.428;2024-02-21T05:12:57;9.40;99.90
13186;DHT22;6658;53.080;7.428;2024-02-21T05:15:31;9.40;99.90
13186;DHT22;6658;53.080;7.428;2024-02-21T05:17:57;9.40;99.90
13186;DHT22;6658;53.080;7.428;2024-02-21T05:20:32;9.40;99.90
13186;DHT22;6658;53.080;7.428;2024-02-21T05:23:08;9.40;99.90
13186;DHT22;6658;53.080;7.428;2024-02-21T05:25:48;9.40;99.90
13186;DHT22;6658;53.080;7.428;2024-02-21T05:28:19;9.40;99.90
13186;DHT22;6658;53.080;7.428;2024-02-21T05:30:45;9.40;99.90
13186;DHT22;6658;53.080;7.428;2024-02-21T05:33:11;9.40;99.90
13186;DHT22;6658;53.080;7.428;2024-02-21T05:35:38;9.40;99.90
13186;DHT22;6658;53.080;7.428;2024-02-21T05:38:04;9.40;99.90
13186;DHT22;6658;53.080;7.428;2024-02-21T05:40:36;9.40;99.90
13186;DHT22;6658;53.080;7.428;2024-02-21T05:43:02;9.40;99.90
13186;DHT22;6658;53.080;7.428;2024-02-21T05:45:30;9.40;99.90
13186;DHT22;6658;53.080;7.428;2024-02-21T05:47:56;9.40;99.90
13186;DHT22;6658;53.080;7.428;2024-02-21T05:50:25;9.40;99.90
13186;DHT22;6658;53.080;7.428;2024-02-21T05:53:01;9.40;99.90
13186;DHT22;6658;53.080;7.428;2024-02-21T05:55:39;9.40;99.90
13186;DHT22;6658;53.080;7.428;2024-02-21T05:58:11;9.40;99.90
13186;DHT22;6658;53.080;7.428;2024-02-21T06:00:39;9.40;99.90
13186;DHT22;6658;53.080;7.428;2024-02-21T06:03:14;9.40;99.90
13186;DHT22;6658;53.080;7.428;2024-02-21T06:05:40;9.40;99.90
13186;DHT22;6658;53.080;7.428;2024-02-21T06:08:06;9.40;99.90
13186;DHT22;6658;53.080;7.428;2024-02-21T06:10:32;9.40;99.90
13186;DHT22;6658;53.080;7.428;2024-02-21T06:12:58;9.40;99.90
13186;DHT22;6658;53.080;7.428;2024-02-21T06:15:29;9.40;99.90
13186;DHT22;6658;53.080;7.428;2024-02-21T06:17:57;9.40;99.90
13186;DHT22;6658;53.080;7.428;2024-02-21T06:20:23;9.40;99.90
13186;DHT22;6658;53.080;7.428;2024-02-21T06:22:54;9.40;99.90
13186;DHT22;6658;53.080;7.428;2024-02-21T06:25:22;9.40;99.90
13186;DHT22;6658;53.080;7.428;2024-02-21T06:27:51;9.40;99.90
13186;DHT22;6658;53.080;7.428;2024-02-21T06:30:19;9.40;99.90
13186;DHT22;6658;53.080;7.428;2024-02-21T06:32:48;9.40;99.90
13186;DHT22;6658;53.080;7.428;2024-02-21T06:35:13;9.40;99.90
13186;DHT22;6658;53.080;7.428;2024-02-21T06:37:39;9.40;99.90
13186;DHT22;6658;53.080;7.428;2024-02-21T06:40:05;9.40;99.90
13186;DHT22;6658;53.080;7.428;2024-02-21T06:42:31;9.40;99.90
13186;DHT22;6658;53.080;7.428;2024-02-21T06:44:57;9.40;99.90
13186;DHT22;6658;53.080;7.428;2024-02-21T06:47:46;9.40;99.90
13186;DHT22;6658;53.080;7.428;2024-02-21T06:50:18;9.40;99.90
13186;DHT22;6658;53.080;7.428;2024-02-21T06:52:53;9.40;99.90
13186;DHT22;6658;53.080;7.428;2024-02-21T06:55:25;9.40;99.90
13186;DHT22;6658;53.080;7.428;2024-02-21T06:57:53;9.40;99.90
13186;DHT22;6658;53.080;7.428;2024-02-21T07:00:24;9.50;99.90
13186;DHT22;6658;53.080;7.428;2024-02-21T07:02:51;9.40;99.90
13186;DHT22;6658;53.080;7.428;2024-02-21T07:05:20;9.40;99.90
13186;DHT22;6658;53.080;7.428;2024-02-21T07:07:51;9.40;99.90
13186;DHT22;6658;53.080;7.428;2024-02-21T07:10:27;9.40;99.90
13186;DHT22;6658;53.080;7.428;2024-02-21T07:12:54;9.40;99.90
13186;DHT22;6658;53.080;7.428;2024-02-21T07:15:29;9.40;99.90
13186;DHT22;6658;53.080;7.428;2024-02-21T07:17:59;9.40;99.90
13186;DHT22;6658;53.080;7.428;2024-02-21T07:20:32;9.50;99.90
13186;DHT22;6658;53.080;7.428;2024-02-21T07:22:59;9.50;99.90
13186;DHT22;6658;53.080;7.428;2024-02-21T07:25:25;9.40;99.90
13186;DHT22;6658;53.080;7.428;2024-02-21T07:27:51;9.50;99.90
13186;DHT22;6658;53.080;7.428;2024-02-21T07:30:17;9.50;99.90
13186;DHT22;6658;53.080;7.428;2024-02-21T07:32:45;9.50;99.90
13186;DHT22;6658;53.080;7.428;2024-02-21T07:35:10;9.50;99.90
13186;DHT22;6658;53.080;7.428;2024-02-21T07:37:38;9.50;99.90
13186;DHT22;6658;53.080;7.428;2024-02-21T07:40:16;9.50;99.90
13186;DHT22;6658;53.080;7.428;2024-02-21T07:42:43;9.50;99.90
13186;DHT22;6658;53.080;7.428;2024-02-21T07:45:09;9.50;99.90
13186;DHT22;6658;53.080;7.428;2024-02-21T07:47:36;9.50;99.90
13186;DHT22;6658;53.080;7.428;2024-02-21T07:50:03;9.50;99.90
13186;DHT22;6658;53.080;7.428;2024-02-21T07:52:29;9.50;99.90
13186;DHT22;6658;53.080;7.428;2024-02-21T07:54:55;9.60;99.90
13186;DHT22;6658;53.080;7.428;2024-02-21T07:57:28;9.60;99.90
13186;DHT22;6658;53.080;7.428;2024-02-21T07:59:57;9.70;99.90
13186;DHT22;6658;53.080;7.428;2024-02-21T08:02:23;9.70;99.90
13186;DHT22;6658;53.080;7.428;2024-02-21T08:04:49;9.80;99.90
13186;DHT22;6658;53.080;7.428;2024-02-21T08:07:22;9.90;99.90
13186;DHT22;6658;53.080;7.428;2024-02-21T08:09:48;9.90;99.90
13186;DHT22;6658;53.080;7.428;2024-02-21T08:12:13;9.90;99.90
13186;DHT22;6658;53.080;7.428;2024-02-21T08:14:39;9.90;99.90
13186;DHT22;6658;53.080;7.428;2024-02-21T08:17:05;9.90;99.90
13186;DHT22;6658;53.080;7.428;2024-02-21T08:19:31;9.90;99.90
13186;DHT22;6658;53.080;7.428;2024-02-21T08:21:59;9.90;99.90
13186;DHT22;6658;53.080;7.428;2024-02-21T08:24:28;10.00;99.90
13186;DHT22;6658;53.080;7.428;2024-02-21T08:26:57;10.00;99.90
13186;DHT22;6658;53.080;7.428;2024-02-21T08:29:31;10.00;99.90
13186;DHT22;6658;53.080;7.428;2024-02-21T08:31:57;10.00;99.90
13186;DHT22;6658;53.080;7.428;2024-02-21T08:34:22;10.00;99.90
13186;DHT22;6658;53.080;7.428;2024-02-21T08:36:48;9.90;99.90
13186;DHT22;6658;53.080;7.428;2024-02-21T08:39:14;9.90;99.90
13186;DHT22;6658;53.080;7.428;2024-02-21T08:41:43;9.90;99.90
13186;DHT22;6658;53.080;7.428;2024-02-21T08:44:08;9.80;99.90
13186;DHT22;6658;53.080;7.428;2024-02-21T08:46:34;9.80;99.90
13186;DHT22;6658;53.080;7.428;2024-02-21T08:49:00;9.70;99.90
13186;DHT22;6658;53.080;7.428;2024-02-21T08:51:28;9.70;99.90
13186;DHT22;6658;53.080;7.428;2024-02-21T08:53:54;9.70;99.90
13186;DHT22;6658;53.080;7.428;2024-02-21T08:56:20;9.60;99.90
13186;DHT22;6658;53.080;7.428;2024-02-21T08:58:50;9.60;99.90
13186;DHT22;6658;53.080;7.428;2024-02-21T09:01:18;9.60;99.90
13186;DHT22;6658;53.080;7.428;2024-02-21T09:03:50;9.60;99.90
13186;DHT22;6658;53.080;7.428;2024-02-21T09:06:22;9.70;99.90
13186;DHT22;6658;53.080;7.428;2024-02-21T09:08:50;9.60;99.90
13186;DHT22;6658;53.080;7.428;2024-02-21T09:11:18;9.70;99.90
13186;DHT22;6658;53.080;7.428;2024-02-21T09:13:55;9.70;99.90
13186;DHT22;6658;53.080;7.428;2024-02-21T09:16:21;9.70;99.90
13186;DHT22;6658;53.080;7.428;2024-02-21T09:18:48;9.70;99.90
13186;DHT22;6658;53.080;7.428;2024-02-21T09:21:13;9.70;99.90
13186;DHT22;6658;53.080;7.428;2024-02-21T09:23:46;9.70;99.90
13186;DHT22;6658;53.080;7.428;2024-02-21T09:26:12;9.70;99.90
13186;DHT22;6658;53.080;7.428;2024-02-21T09:28:41;9.80;99.90
13186;DHT22;6658;53.080;7.428;2024-02-21T09:31:10;9.80;99.90
13186;DHT22;6658;53.080;7.428;2024-02-21T09:33:36;9.70;99.90
13186;DHT22;6658;53.080;7.428;2024-02-21T09:36:05;9.80;99.90
13186;DHT22;6658;53.080;7.428;2024-02-21T09:38:41;9.80;99.90
13186;DHT22;6658;53.080;7.428;2024-02-21T09:41:25;9.80;99.90
13186;DHT22;6658;53.080;7.428;2024-02-21T09:43:54;9.80;99.90
13186;DHT22;6658;53.080;7.428;2024-02-21T09:46:52;9.80;99.90
13186;DHT22;6658;53.080;7.428;2024-02-21T09:49:32;9.90;99.90
13186;DHT22;6658;53.080;7.428;2024-02-21T09:52:07;9.80;99.90
13186;DHT22;6658;53.080;7.428;2024-02-21T09:54:34;9.80;99.90
13186;DHT22;6658;53.080;7.428;2024-02-21T09:57:06;9.80;99.90
13186;DHT22;6658;53.080;7.428;2024-02-21T09:59:32;9.80;99.90
13186;DHT22;6658;53.080;7.428;2024-02-21T10:02:01;9.90;99.90
13186;DHT22;6658;53.080;7.428;2024-02-21T10:04:51;9.90;99.90
13186;DHT22;6658;53.080;7.428;2024-02-21T10:07:17;10.00;99.90
13186;DHT22;6658;53.080;7.428;2024-02-21T10:09:59;10.00;99.90
13186;DHT22;6658;53.080;7.428;2024-02-21T10:12:25;10.00;99.90
13186;DHT22;6658;53.080;7.428;2024-02-21T10:15:02;10.00;99.90
13186;DHT22;6658;53.080;7.428;2024-02-21T10:17:28;10.10;99.90
13186;DHT22;6658;53.080;7.428;2024-02-21T10:20:09;10.20;99.90
13186;DHT22;6658;53.080;7.428;2024-02-21T10:22:35;10.20;99.90
13186;DHT22;6658;53.080;7.428;2024-02-21T10:25:12;10.30;99.90
13186;DHT22;6658;53.080;7.428;2024-02-21T10:27:39;10.40;99.90
13186;DHT22;6658;53.080;7.428;2024-02-21T10:30:12;10.50;99.90
13186;DHT22;6658;53.080;7.428;2024-02-21T10:32:51;10.60;99.90
13186;DHT22;6658;53.080;7.428;2024-02-21T10:35:29;10.70;99.90
13186;DHT22;6658;53.080;7.428;2024-02-21T10:37:58;10.80;99.90
13186;DHT22;6658;53.080;7.428;2024-02-21T10:40:26;10.80;99.90
13186;DHT22;6658;53.080;7.428;2024-02-21T10:43:00;10.80;99.90
13186;DHT22;6658;53.080;7.428;2024-02-21T10:45:30;10.90;99.90
13186;DHT22;6658;53.080;7.428;2024-02-21T10:48:12;10.90;99.90
13186;DHT22;6658;53.080;7.428;2024-02-21T10:51:19;11.00;99.90
13186;DHT22;6658;53.080;7.428;2024-02-21T10:53:53;11.00;99.90
13186;DHT22;6658;53.080;7.428;2024-02-21T10:56:32;11.10;99.90
13186;DHT22;6658;53.080;7.428;2024-02-21T10:59:02;11.10;99.90
13186;DHT22;6658;53.080;7.428;2024-02-21T11:01:29;11.10;99.90
13186;DHT22;6658;53.080;7.428;2024-02-21T11:04:01;11.20;99.90
13186;DHT22;6658;53.080;7.428;2024-02-21T11:06:28;11.20;99.90
13186;DHT22;6658;53.080;7.428;2024-02-21T11:09:06;11.20;99.90
13186;DHT22;6658;53.080;7.428;2024-02-21T11:11:36;11.20;99.90
13186;DHT22;6658;53.080;7.428;2024-02-21T11:14:18;11.20;99.90
13186;DHT22;6658;53.080;7.428;2024-02-21T11:16:45;11.20;99.90
13186;DHT22;6658;53.080;7.428;2024-02-21T11:19:26;11.10;99.90
13186;DHT22;6658;53.080;7.428;2024-02-21T11:21:53;11.00;99.90
13186;DHT22;6658;53.080;7.428;2024-02-21T11:24:29;11.00;99.90
13186;DHT22;6658;53.080;7.428;2024-02-21T11:26:55;11.10;99.90
13186;DHT22;6658;53.080;7.428;2024-02-21T11:29:27;11.10;99.90
13186;DHT22;6658;53.080;7.428;2024-02-21T11:31:56;11.10;99.90
13186;DHT22;6658;53.080;7.428;2024-02-21T11:34:22;11.10;99.90
13186;DHT22;6658;53.080;7.428;2024-02-21T11:36:52;11.20;99.90
13186;DHT22;6658;53.080;7.428;2024-02-21T11:39:25;11.10;99.90
13186;DHT22;6658;53.080;7.428;2024-02-21T11:42:04;11.20;99.90
13186;DHT22;6658;53.080;7.428;2024-02-21T11:44:32;11.30;99.90
13186;DHT22;6658;53.080;7.428;2024-02-21T11:46:58;11.40;99.90
13186;DHT22;6658;53.080;7.428;2024-02-21T11:49:30;11.50;99.90
13186;DHT22;6658;53.080;7.428;2024-02-21T11:52:03;11.70;99.90
13186;DHT22;6658;53.080;7.428;2024-02-21T11:54:33;11.80;99.90
13186;DHT22;6658;53.080;7.428;2024-02-21T11:57:01;11.80;99.90
13186;DHT22;6658;53.080;7.428;2024-02-21T11:59:30;11.80;99.90
13186;DHT22;6658;53.080;7.428;2024-02-21T12:01:58;11.70;99.90
13186;DHT22;6658;53.080;7.428;2024-02-21T12:04:25;11.70;99.90
13186;DHT22;6658;53.080;7.428;2024-02-21T12:06:52;11.70;99.90
13186;DHT22;6658;53.080;7.428;2024-02-21T12:09:19;11.70;99.90
13186;DHT22;6658;53.080;7.428;2024-02-21T12:11:45;11.70;99.90
13186;DHT22;6658;53.080;7.428;2024-02-21T12:14:16;11.60;99.90
13186;DHT22;6658;53.080;7.428;2024-02-21T12:16:42;11.60;99.90
13186;DHT22;6658;53.080;7.428;2024-02-21T12:19:13;11.60;99.90
13186;DHT22;6658;53.080;7.428;2024-02-21T12:21:39;11.60;99.90
13186;DHT22;6658;53.080;7.428;2024-02-21T12:24:26;11.60;99.90
13186;DHT22;6658;53.080;7.428;2024-02-21T12:26:55;11.60;99.90
13186;DHT22;6658;53.080;7.428;2024-02-21T12:29:22;11.60;99.90
13186;DHT22;6658;53.080;7.428;2024-02-21T12:31:50;11.60;99.90
13186;DHT22;6658;53.080;7.428;2024-02-21T12:34:16;11.60;99.90
13186;DHT22;6658;53.080;7.428;2024-02-21T12:36:45;11.60;99.90
13186;DHT22;6658;53.080;7.428;2024-02-21T12:39:14;11.60;99.90
13186;DHT22;6658;53.080;7.428;2024-02-21T12:41:40;11.60;99.90
13186;DHT22;6658;53.080;7.428;2024-02-21T12:44:11;11.70;99.90
13186;DHT22;6658;53.080;7.428;2024-02-21T12:46:38;11.70;99.90
13186;DHT22;6658;53.080;7.428;2024-02-21T12:49:05;11.60;99.90
13186;DHT22;6658;53.080;7.428;2024-02-21T12:51:33;11.60;99.90
13186;DHT22;6658;53.080;7.428;2024-02-21T12:53:59;11.60;99.90
13186;DHT22;6658;53.080;7.428;2024-02-21T12:56:31;11.60;99.90
13186;DHT22;6658;53.080;7.428;2024-02-21T12:59:09;11.50;99.90
13186;DHT22;6658;53.080;7.428;2024-02-21T13:01:36;11.50;99.90
13186;DHT22;6658;53.080;7.428;2024-02-21T13:04:02;11.50;99.90
13186;DHT22;6658;53.080;7.428;2024-02-21T13:06:28;11.50;99.90
13186;DHT22;6658;53.080;7.428;2024-02-21T13:08:54;11.60;99.90
13186;DHT22;6658;53.080;7.428;2024-02-21T13:11:20;11.60;99.90
13186;DHT22;6658;53.080;7.428;2024-02-21T13:13:46;11.60;99.90
13186;DHT22;6658;53.080;7.428;2024-02-21T13:16:12;11.60;99.90
13186;DHT22;6658;53.080;7.428;2024-02-21T13:18:37;11.60;99.90
13186;DHT22;6658;53.080;7.428;2024-02-21T13:21:06;11.60;99.90
13186;DHT22;6658;53.080;7.428;2024-02-21T13:23:32;11.50;99.90
13186;DHT22;6658;53.080;7.428;2024-02-21T13:25:58;11.50;99.90
13186;DHT22;6658;53.080;7.428;2024-02-21T13:28:24;11.50;99.90
13186;DHT22;6658;53.080;7.428;2024-02-21T13:30:49;11.40;99.90
13186;DHT22;6658;53.080;7.428;2024-02-21T13:33:15;11.40;99.90
13186;DHT22;6658;53.080;7.428;2024-02-21T13:35:44;11.30;99.90
13186;DHT22;6658;53.080;7.428;2024-02-21T13:38:09;11.30;99.90
13186;DHT22;6658;53.080;7.428;2024-02-21T13:40:35;11.20;99.90
13186;DHT22;6658;53.080;7.428;2024-02-21T13:43:01;11.20;99.90
13186;DHT22;6658;53.080;7.428;2024-02-21T13:45:27;11.20;99.90
13186;DHT22;6658;53.080;7.428;2024-02-21T13:47:53;11.20;99.90
13186;DHT22;6658;53.080;7.428;2024-02-21T13:50:21;11.20;99.90
13186;DHT22;6658;53.080;7.428;2024-02-21T13:52:47;11.20;99.90
13186;DHT22;6658;53.080;7.428;2024-02-21T13:55:22;11.20;99.90
13186;DHT22;6658;53.080;7.428;2024-02-21T13:57:51;11.30;99.90
13186;DHT22;6658;53.080;7.428;2024-02-21T14:00:17;11.50;99.90
13186;DHT22;6658;53.080;7.428;2024-02-21T14:02:49;11.60;99.90
13186;DHT22;6658;53.080;7.428;2024-02-21T14:05:20;11.60;99.90
13186;DHT22;6658;53.080;7.428;2024-02-21T14:07:45;11.60;99.90
13186;DHT22;6658;53.080;7.428;2024-02-21T14:10:21;11.50;99.90
13186;DHT22;6658;53.080;7.428;2024-02-21T14:12:50;11.40;99.90
13186;DHT22;6658;53.080;7.428;2024-02-21T14:15:16;11.30;99.90
13186;DHT22;6658;53.080;7.428;2024-02-21T14:17:44;11.20;99.90
13186;DHT22;6658;53.080;7.428;2024-02-21T14:20:10;11.20;99.90
13186;DHT22;6658;53.080;7.428;2024-02-21T14:22:36;11.20;99.90
13186;DHT22;6658;53.080;7.428;2024-02-21T14:25:09;11.20;99.90
13186;DHT22;6658;53.080;7.428;2024-02-21T14:27:41;11.20;99.90
13186;DHT22;6658;53.080;7.428;2024-02-21T14:30:07;11.20;99.90
13186;DHT22;6658;53.080;7.428;2024-02-21T14:32:44;11.20;99.90
13186;DHT22;6658;53.080;7.428;2024-02-21T14:35:16;11.20;99.90
13186;DHT22;6658;53.080;7.428;2024-02-21T14:37:50;11.10;99.90
13186;DHT22;6658;53.080;7.428;2024-02-21T14:40:22;11.10;99.90
13186;DHT22;6658;53.080;7.428;2024-02-21T14:42:48;11.10;99.90
13186;DHT22;6658;53.080;7.428;2024-02-21T14:45:20;11.00;99.90
13186;DHT22;6658;53.080;7.428;2024-02-21T14:47:45;11.00;99.90
13186;DHT22;6658;53.080;7.428;2024-02-21T14:50:18;11.00;99.90
13186;DHT22;6658;53.080;7.428;2024-02-21T14:52:46;11.00;99.90
13186;DHT22;6658;53.080;7.428;2024-02-21T14:55:16;10.90;99.90
13186;DHT22;6658;53.080;7.428;2024-02-21T14:57:42;10.90;99.90
13186;DHT22;6658;53.080;7.428;2024-02-21T15:00:17;10.90;99.90
13186;DHT22;6658;53.080;7.428;2024-02-21T15:02:46;10.80;99.90
13186;DHT22;6658;53.080;7.428;2024-02-21T15:05:11;10.80;99.90
13186;DHT22;6658;53.080;7.428;2024-02-21T15:07:50;10.70;99.90
13186;DHT22;6658;53.080;7.428;2024-02-21T15:10:16;10.70;99.90
13186;DHT22;6658;53.080;7.428;2024-02-21T15:12:48;10.70;99.90
13186;DHT22;6658;53.080;7.428;2024-02-21T15:15:13;10.70;99.90
13186;DHT22;6658;53.080;7.428;2024-02-21T15:17:39;10.70;99.90
13186;DHT22;6658;53.080;7.428;2024-02-21T15:20:06;10.70;99.90
13186;DHT22;6658;53.080;7.428;2024-02-21T15:22:36;10.60;99.90
13186;DHT22;6658;53.080;7.428;2024-02-21T15:25:05;10.70;99.90
13186;DHT22;6658;53.080;7.428;2024-02-21T15:27:31;10.70;99.90
13186;DHT22;6658;53.080;7.428;2024-02-21T15:30:07;10.70;99.90
13186;DHT22;6658;53.080;7.428;2024-02-21T15:32:42;10.70;99.90
13186;DHT22;6658;53.080;7.428;2024-02-21T15:35:10;10.70;99.90
13186;DHT22;6658;53.080;7.428;2024-02-21T15:37:42;10.70;99.90
13186;DHT22;6658;53.080;7.428;2024-02-21T15:40:08;10.70;99.90
13186;DHT22;6658;53.080;7.428;2024-02-21T15:42:34;10.60;99.90
13186;DHT22;6658;53.080;7.428;2024-02-21T15:44:59;10.60;99.90
13186;DHT22;6658;53.080;7.428;2024-02-21T15:47:27;10.60;99.90
13186;DHT22;6658;53.080;7.428;2024-02-21T15:49:53;10.60;99.90
13186;DHT22;6658;53.080;7.428;2024-02-21T15:52:19;10.60;99.90
13186;DHT22;6658;53.080;7.428;2024-02-21T15:54:44;10.60;99.90
13186;DHT22;6658;53.080;7.428;2024-02-21T15:57:10;10.50;99.90
13186;DHT22;6658;53.080;7.428;2024-02-21T15:59:36;10.50;99.90
13186;DHT22;6658;53.080;7.428;2024-02-21T16:02:02;10.50;99.90
13186;DHT22;6658;53.080;7.428;2024-02-21T16:04:31;10.50;99.90
13186;DHT22;6658;53.080;7.428;2024-02-21T16:07:02;10.50;99.90